createdAt,value
2023-08-28T00:01:12.977Z,20.33
2023-08-28T00:03:39.604Z,20.37
2023-08-28T00:06:06.206Z,20.20
2023-08-28T00:08:32.729Z,20.07
2023-08-28T00:10:59.163Z,19.94
2023-08-28T00:13:25.634Z,19.89
2023-08-28T00:15:52.383Z,19.81
2023-08-28T00:18:19.104Z,19.79
2023-08-28T00:20:46.601Z,19.78
2023-08-28T00:23:13.146Z,19.71
2023-08-28T00:25:39.576Z,19.71
2023-08-28T00:28:06.196Z,19.72
2023-08-28T00:30:32.682Z,19.75
2023-08-28T00:32:59.219Z,19.76
2023-08-28T00:35:25.781Z,19.71
2023-08-28T00:37:52.251Z,19.70
2023-08-28T00:40:19.102Z,19.77
2023-08-28T00:42:45.584Z,19.83
2023-08-28T00:45:12.123Z,19.83
2023-08-28T00:47:40.325Z,19.90
2023-08-28T00:50:07.422Z,19.91
2023-08-28T00:52:34.150Z,19.85
2023-08-28T00:55:01.080Z,19.77
2023-08-28T00:57:27.635Z,19.77
2023-08-28T00:59:54.142Z,19.77
2023-08-28T01:02:20.593Z,19.76
2023-08-28T01:04:47.218Z,19.79
2023-08-28T01:07:24.319Z,19.81
2023-08-28T01:10:05.390Z,19.80
2023-08-28T01:12:43.430Z,19.80
2023-08-28T01:15:21.709Z,19.80
2023-08-28T01:17:52.580Z,19.83
2023-08-28T01:20:20.313Z,19.88
2023-08-28T01:22:59.143Z,19.92
2023-08-28T01:25:26.703Z,19.98
2023-08-28T01:27:53.808Z,19.97
2023-08-28T01:30:21.549Z,19.98
2023-08-28T01:32:48.369Z,20.01
2023-08-28T01:35:18.749Z,20.04
2023-08-28T01:38:03.985Z,20.06
2023-08-28T01:40:37.609Z,20.09
2023-08-28T01:43:09.094Z,20.12
2023-08-28T01:45:38.785Z,20.17
2023-08-28T01:48:06.800Z,20.24
2023-08-28T01:50:34.049Z,20.37
2023-08-28T01:53:00.821Z,20.40
2023-08-28T01:55:55.221Z,20.47
2023-08-28T01:58:21.882Z,20.50
2023-08-28T02:00:50.753Z,20.42
2023-08-28T02:03:17.309Z,20.46
2023-08-28T02:05:43.752Z,20.44
2023-08-28T02:08:10.225Z,20.40
2023-08-28T02:10:36.673Z,20.42
2023-08-28T02:13:03.907Z,20.39
2023-08-28T02:15:30.578Z,20.33
2023-08-28T02:17:57.099Z,20.34
2023-08-28T02:20:23.700Z,20.32
2023-08-28T02:22:50.154Z,20.28
2023-08-28T02:25:21.544Z,20.28
2023-08-28T02:27:48.015Z,20.27
2023-08-28T02:30:14.463Z,20.35
2023-08-28T02:32:41.096Z,20.39
2023-08-28T02:35:07.915Z,20.40
2023-08-28T02:37:34.583Z,20.38
2023-08-28T02:40:01.023Z,20.39
2023-08-28T02:42:27.484Z,20.41
2023-08-28T02:44:53.905Z,20.49
2023-08-28T02:47:20.330Z,20.52
2023-08-28T02:49:48.253Z,20.53
2023-08-28T02:52:14.746Z,20.59
2023-08-28T02:54:41.179Z,20.71
2023-08-28T02:57:07.634Z,20.80
2023-08-28T02:59:34.100Z,20.84
2023-08-28T03:02:00.685Z,20.93
2023-08-28T03:04:27.224Z,20.94
2023-08-28T03:06:53.678Z,21.04
2023-08-28T03:09:20.166Z,21.11
2023-08-28T03:11:46.864Z,21.09
2023-08-28T03:14:19.956Z,21.12
2023-08-28T03:16:46.382Z,21.09
2023-08-28T03:19:12.812Z,21.07
2023-08-28T03:21:40.702Z,21.03
2023-08-28T03:24:07.825Z,20.98
2023-08-28T03:26:34.862Z,20.99
2023-08-28T03:29:01.678Z,20.90
2023-08-28T03:31:28.707Z,20.84
2023-08-28T03:33:55.231Z,20.81
2023-08-28T03:36:21.758Z,20.86
2023-08-28T03:38:48.193Z,20.91
2023-08-28T03:41:14.633Z,20.92
2023-08-28T03:43:41.166Z,20.92
2023-08-28T03:46:07.754Z,20.91
2023-08-28T03:48:34.563Z,20.89
2023-08-28T03:51:01.211Z,20.87
2023-08-28T03:53:28.207Z,20.92
2023-08-28T03:55:54.701Z,20.93
2023-08-28T03:58:23.160Z,20.92
2023-08-28T04:00:55.143Z,20.90
2023-08-28T04:03:21.818Z,20.88
2023-08-28T04:05:49.741Z,20.87
2023-08-28T04:08:16.556Z,20.84
2023-08-28T04:10:43.822Z,20.81
2023-08-28T04:13:10.325Z,20.77
2023-08-28T04:15:37.238Z,20.77
2023-08-28T04:18:03.957Z,20.74
2023-08-28T04:20:31.444Z,20.72
2023-08-28T04:22:57.912Z,20.72
2023-08-28T04:25:24.897Z,20.70
2023-08-28T04:27:51.378Z,20.70
2023-08-28T04:30:20.719Z,20.70
2023-08-28T04:32:47.309Z,20.71
2023-08-28T04:35:13.957Z,20.69
2023-08-28T04:37:41.179Z,20.68
2023-08-28T04:40:08.565Z,20.71
2023-08-28T04:42:35.015Z,20.75
2023-08-28T04:45:01.433Z,20.74
2023-08-28T04:47:28.075Z,20.75
2023-08-28T04:49:54.804Z,20.75
2023-08-28T04:52:23.160Z,20.76
2023-08-28T04:54:49.593Z,20.76
2023-08-28T04:57:18.981Z,20.74
2023-08-28T04:59:45.503Z,20.69
2023-08-28T05:02:12.006Z,20.67
2023-08-28T05:04:38.456Z,20.63
2023-08-28T05:07:06.280Z,20.59
2023-08-28T05:09:32.768Z,20.57
2023-08-28T05:11:59.214Z,20.50
2023-08-28T05:14:25.831Z,20.47
2023-08-28T05:16:52.284Z,20.48
2023-08-28T05:19:18.727Z,20.48
2023-08-28T05:21:48.915Z,20.50
2023-08-28T05:24:18.653Z,20.49
2023-08-28T05:26:45.101Z,20.53
2023-08-28T05:29:11.699Z,20.60
2023-08-28T05:31:38.379Z,20.70
2023-08-28T05:34:04.940Z,20.72
2023-08-28T05:36:31.368Z,20.74
2023-08-28T05:38:57.813Z,20.75
2023-08-28T05:41:24.318Z,20.75
2023-08-28T05:43:50.759Z,20.77
2023-08-28T05:46:17.390Z,20.77
2023-08-28T05:48:47.373Z,20.82
2023-08-28T05:51:13.811Z,20.85
2023-08-28T05:53:42.552Z,20.86
2023-08-28T05:56:16.806Z,20.92
2023-08-28T05:58:44.511Z,20.92
2023-08-28T06:01:11.159Z,20.95
2023-08-28T06:03:40.777Z,20.95
2023-08-28T06:06:07.277Z,20.97
2023-08-28T06:08:33.737Z,20.97
2023-08-28T06:11:00.183Z,20.99
2023-08-28T06:13:27.046Z,21.09
2023-08-28T06:15:57.421Z,21.14
2023-08-28T06:18:24.401Z,21.14
2023-08-28T06:20:50.869Z,21.13
2023-08-28T06:23:18.736Z,21.36
2023-08-28T06:25:47.565Z,21.47
2023-08-28T06:28:14.665Z,21.52
2023-08-28T06:30:41.450Z,21.59
2023-08-28T06:33:08.135Z,21.83
2023-08-28T06:35:34.906Z,21.76
2023-08-28T06:38:01.558Z,21.79
2023-08-28T06:40:28.079Z,21.89
2023-08-28T06:42:54.804Z,22.01
2023-08-28T06:45:21.277Z,22.03
2023-08-28T06:47:48.235Z,22.05
2023-08-28T06:50:14.904Z,22.23
2023-08-28T06:52:41.343Z,22.36
2023-08-28T06:55:17.060Z,22.43
2023-08-28T06:57:43.551Z,22.36
2023-08-28T07:00:12.115Z,22.28
2023-08-28T07:02:38.839Z,22.16
2023-08-28T07:05:08.867Z,22.16
2023-08-28T07:07:35.387Z,22.26
2023-08-28T07:10:02.336Z,22.20
2023-08-28T07:12:28.790Z,22.38
2023-08-28T07:15:28.066Z,22.36
2023-08-28T07:17:54.733Z,22.56
2023-08-28T07:20:22.658Z,22.65
2023-08-28T07:22:49.208Z,22.61
2023-08-28T07:25:22.758Z,22.54
2023-08-28T07:27:53.101Z,22.50
2023-08-28T07:30:19.977Z,22.63
2023-08-28T07:32:46.720Z,22.73
2023-08-28T07:35:13.314Z,22.97
2023-08-28T07:37:39.850Z,23.22
2023-08-28T07:40:07.600Z,23.03
2023-08-28T07:42:34.634Z,22.83
2023-08-28T07:45:01.133Z,22.79
2023-08-28T07:47:28.281Z,22.83
2023-08-28T07:49:55.734Z,22.94
2023-08-28T07:52:25.269Z,22.79
2023-08-28T07:54:51.784Z,22.68
2023-08-28T07:57:21.061Z,22.58
2023-08-28T07:59:47.628Z,22.80
2023-08-28T08:02:14.398Z,22.83
2023-08-28T08:04:40.864Z,23.02
2023-08-28T08:07:07.341Z,23.08
2023-08-28T08:09:33.778Z,22.99
2023-08-28T08:12:00.248Z,23.13
2023-08-28T08:14:26.688Z,23.20
2023-08-28T08:16:53.135Z,23.23
2023-08-28T08:19:19.568Z,23.28
2023-08-28T08:21:46.133Z,22.96
2023-08-28T08:24:12.625Z,22.84
2023-08-28T08:26:39.112Z,22.76
2023-08-28T08:29:05.682Z,22.75
2023-08-28T08:31:32.453Z,22.91
2023-08-28T08:33:59.114Z,23.08
2023-08-28T08:36:25.584Z,23.22
2023-08-28T08:38:52.056Z,23.22
2023-08-28T08:41:21.610Z,23.08
2023-08-28T08:43:48.213Z,22.96
2023-08-28T08:46:14.994Z,22.83
2023-08-28T08:48:42.987Z,22.73
2023-08-28T08:51:09.639Z,22.61
2023-08-28T08:53:44.129Z,22.57
2023-08-28T08:56:14.048Z,22.48
2023-08-28T08:58:41.600Z,22.53
2023-08-28T09:01:08.931Z,22.51
2023-08-28T09:03:35.820Z,22.50
2023-08-28T09:06:06.487Z,22.26
2023-08-28T09:08:35.646Z,22.10
2023-08-28T09:11:02.385Z,21.68
2023-08-28T09:13:28.909Z,21.66
2023-08-28T09:15:55.403Z,21.89
2023-08-28T09:18:22.232Z,21.86
2023-08-28T09:21:13.516Z,21.78
2023-08-28T09:23:51.873Z,21.67
2023-08-28T09:26:23.263Z,21.49
2023-08-28T09:29:00.305Z,21.43
2023-08-28T09:31:44.085Z,21.32
2023-08-28T09:34:10.844Z,21.22
2023-08-28T09:36:44.120Z,21.16
2023-08-28T09:39:13.337Z,21.19
2023-08-28T09:41:41.056Z,21.08
2023-08-28T09:44:07.603Z,21.02
2023-08-28T09:46:36.471Z,21.04
2023-08-28T09:49:03.359Z,21.09
2023-08-28T09:51:44.257Z,21.07
2023-08-28T09:54:11.599Z,20.97
2023-08-28T09:56:39.438Z,20.93
2023-08-28T09:59:08.018Z,20.64
2023-08-28T10:01:36.334Z,20.48
2023-08-28T10:04:08.253Z,20.54
2023-08-28T10:06:36.338Z,20.51
2023-08-28T10:09:06.829Z,20.45
2023-08-28T10:11:40.969Z,20.37
2023-08-28T10:14:08.190Z,20.37
2023-08-28T10:16:42.378Z,20.39
2023-08-28T10:19:18.426Z,20.40
2023-08-28T10:21:47.778Z,20.41
2023-08-28T10:24:18.248Z,20.36
2023-08-28T10:26:45.539Z,20.27
2023-08-28T10:29:12.752Z,20.21
2023-08-28T10:31:40.691Z,20.16
2023-08-28T10:34:08.726Z,20.19
2023-08-28T10:36:55.358Z,20.18
2023-08-28T10:39:28.485Z,20.20
2023-08-28T10:41:56.152Z,20.20
2023-08-28T10:44:23.853Z,20.15
2023-08-28T10:46:54.951Z,20.09
2023-08-28T10:49:21.494Z,20.07
2023-08-28T10:51:48.048Z,20.01
2023-08-28T10:54:14.506Z,19.90
2023-08-28T10:56:41.216Z,19.87
2023-08-28T10:59:24.453Z,19.90
2023-08-28T11:01:56.077Z,19.92
2023-08-28T11:04:23.873Z,19.92
2023-08-28T11:06:50.678Z,19.94
2023-08-28T11:09:31.684Z,19.91
2023-08-28T11:12:01.523Z,19.92
2023-08-28T11:17:08.901Z,19.76
2023-08-28T11:19:57.052Z,19.74
2023-08-28T11:22:40.163Z,19.74
2023-08-28T11:25:12.803Z,19.90
2023-08-28T11:27:51.252Z,19.95
2023-08-28T11:30:21.113Z,19.97
2023-08-28T11:32:53.853Z,20.11
2023-08-28T11:35:24.745Z,20.33
2023-08-28T11:37:55.774Z,20.31
2023-08-28T11:40:24.288Z,20.29
2023-08-28T11:43:04.685Z,20.30
2023-08-28T11:45:31.595Z,20.25
2023-08-28T11:48:07.728Z,20.19
2023-08-28T11:50:35.266Z,20.37
2023-08-28T11:53:05.972Z,20.70
2023-08-28T11:55:35.764Z,20.80
2023-08-28T11:58:07.218Z,20.84
2023-08-28T12:00:33.812Z,20.89
2023-08-28T12:03:02.931Z,20.75
2023-08-28T12:05:30.148Z,20.63
2023-08-28T12:07:56.604Z,20.68
2023-08-28T12:10:23.449Z,20.62
2023-08-28T12:12:55.337Z,20.48
2023-08-28T12:15:34.116Z,20.39
2023-08-28T12:18:02.751Z,20.33
2023-08-28T12:20:31.739Z,20.26
2023-08-28T12:22:59.234Z,20.23
2023-08-28T12:25:33.506Z,20.14
2023-08-28T12:28:10.700Z,20.20
2023-08-28T12:30:40.916Z,20.16
2023-08-28T12:33:08.867Z,20.13
2023-08-28T12:35:39.729Z,20.06
2023-08-28T12:38:06.677Z,20.07
2023-08-28T12:40:37.261Z,19.97
2023-08-28T12:43:15.084Z,20.00
2023-08-28T12:45:43.238Z,20.07
2023-08-28T12:48:09.812Z,20.01
2023-08-28T12:50:36.934Z,20.16
2023-08-28T12:53:05.879Z,20.14
2023-08-28T12:55:32.745Z,20.28
2023-08-28T12:57:59.170Z,20.41
2023-08-28T13:00:26.292Z,20.67
2023-08-28T13:02:52.952Z,20.93
2023-08-28T13:05:19.660Z,21.14
2023-08-28T13:07:46.111Z,21.32
2023-08-28T13:10:13.277Z,20.93
2023-08-28T13:12:39.751Z,20.80
2023-08-28T13:15:06.696Z,20.66
2023-08-28T13:17:33.218Z,20.44
2023-08-28T13:19:59.737Z,20.76
2023-08-28T13:22:26.187Z,20.92
2023-08-28T13:24:52.647Z,20.59
2023-08-28T13:27:19.134Z,20.16
2023-08-28T13:29:45.629Z,20.40
2023-08-28T13:32:12.114Z,20.33
2023-08-28T13:34:38.621Z,20.16
2023-08-28T13:37:06.825Z,20.38
2023-08-28T13:39:33.836Z,20.45
2023-08-28T13:42:00.458Z,20.05
2023-08-28T13:44:28.414Z,19.60
2023-08-28T13:46:57.051Z,19.68
2023-08-28T13:49:23.572Z,19.77
2023-08-28T13:51:52.705Z,19.96
2023-08-28T13:54:19.678Z,20.17
2023-08-28T13:56:46.705Z,20.18
2023-08-28T13:59:13.152Z,20.30
2023-08-28T14:01:41.904Z,20.72
2023-08-28T14:04:08.530Z,20.65
2023-08-28T14:06:36.232Z,20.71
2023-08-28T14:09:03.943Z,20.62
2023-08-28T14:11:30.408Z,20.52
2023-08-28T14:13:56.896Z,20.38
2023-08-28T14:16:23.341Z,20.23
2023-08-28T14:18:49.816Z,20.34
2023-08-28T14:21:16.261Z,20.26
2023-08-28T14:23:43.776Z,20.04
2023-08-28T14:26:10.270Z,20.05
2023-08-28T14:28:36.785Z,20.04
2023-08-28T14:31:04.004Z,20.02
2023-08-28T14:33:30.515Z,20.07
2023-08-28T14:35:57.070Z,20.01
2023-08-28T14:38:23.572Z,19.95
2023-08-28T14:40:52.307Z,20.11
2023-08-28T14:43:19.860Z,20.16
2023-08-28T14:45:46.364Z,20.14
2023-08-28T14:48:13.945Z,20.24
2023-08-28T14:50:40.670Z,20.30
2023-08-28T14:53:07.403Z,20.35
2023-08-28T14:55:34.224Z,20.19
2023-08-28T14:58:03.593Z,20.10
2023-08-28T15:00:30.019Z,20.11
2023-08-28T15:02:57.099Z,20.13
2023-08-28T15:05:24.151Z,20.30
2023-08-28T15:07:53.117Z,20.31
2023-08-28T15:10:24.071Z,20.15
2023-08-28T15:12:50.520Z,20.11
2023-08-28T15:15:17.113Z,20.18
2023-08-28T15:17:43.608Z,20.34
2023-08-28T15:20:10.359Z,20.37
2023-08-28T15:22:38.214Z,20.39
2023-08-28T15:25:05.398Z,20.40
2023-08-28T15:27:31.895Z,20.23
2023-08-28T15:29:58.610Z,20.21
2023-08-28T15:32:25.868Z,20.39
2023-08-28T15:34:53.071Z,20.38
2023-08-28T15:37:19.552Z,20.42
2023-08-28T15:39:46.045Z,20.44
2023-08-28T15:42:12.525Z,20.40
2023-08-28T15:44:39.035Z,20.51
2023-08-28T15:47:05.814Z,20.47
2023-08-28T15:49:32.263Z,20.33
2023-08-28T15:51:58.742Z,20.43
2023-08-28T15:54:25.204Z,20.40
2023-08-28T15:56:51.640Z,20.37
2023-08-28T15:59:18.364Z,20.32
2023-08-28T16:01:47.928Z,20.16
2023-08-28T16:04:14.470Z,20.00
2023-08-28T16:06:40.973Z,20.10
2023-08-28T16:09:07.507Z,20.13
2023-08-28T16:11:34.434Z,20.07
2023-08-28T16:14:01.754Z,20.06
2023-08-28T16:16:28.959Z,20.01
2023-08-28T16:18:55.650Z,20.01
2023-08-28T16:21:22.125Z,19.87
2023-08-28T16:23:48.671Z,19.84
2023-08-28T16:26:15.144Z,19.72
2023-08-28T16:28:41.629Z,19.62
2023-08-28T16:31:10.662Z,19.56
2023-08-28T16:33:37.527Z,19.53
2023-08-28T16:36:04.353Z,19.50
2023-08-28T16:38:30.838Z,19.39
2023-08-28T16:40:57.325Z,19.17
2023-08-28T16:43:23.765Z,19.13
2023-08-28T16:45:50.300Z,19.08
2023-08-28T16:48:16.851Z,19.08
2023-08-28T16:50:46.040Z,18.94
2023-08-28T16:53:13.593Z,18.84
2023-08-28T16:55:42.317Z,18.94
2023-08-28T16:58:09.146Z,18.91
2023-08-28T17:00:36.221Z,18.81
2023-08-28T17:03:04.019Z,18.84
2023-08-28T17:05:32.052Z,18.93
2023-08-28T17:07:59.770Z,18.98
2023-08-28T17:10:30.339Z,18.99
2023-08-28T17:12:57.913Z,18.84
2023-08-28T17:15:24.537Z,18.87
2023-08-28T17:17:51.322Z,18.88
2023-08-28T17:20:18.144Z,18.70
2023-08-28T17:22:44.621Z,18.75
2023-08-28T17:25:17.006Z,18.78
2023-08-28T17:27:43.528Z,18.75
2023-08-28T17:30:10.434Z,18.72
2023-08-28T17:32:40.185Z,18.62
2023-08-28T17:35:09.979Z,18.57
2023-08-28T17:37:36.799Z,18.47
2023-08-28T17:40:05.428Z,18.47
2023-08-28T17:42:32.069Z,18.46
2023-08-28T17:44:58.550Z,18.48
2023-08-28T17:47:25.062Z,18.44
2023-08-28T17:49:55.016Z,18.41
2023-08-28T17:52:27.896Z,18.35
2023-08-28T17:55:01.137Z,18.31
2023-08-28T17:57:36.827Z,18.28
2023-08-28T18:00:04.885Z,18.28
2023-08-28T18:02:48.136Z,18.25
2023-08-28T18:05:18.512Z,18.21
2023-08-28T18:07:45.040Z,18.18
2023-08-28T18:10:11.497Z,18.26
2023-08-28T18:12:38.740Z,18.17
2023-08-28T18:15:05.611Z,18.18
2023-08-28T18:17:32.190Z,18.29
2023-08-28T18:20:13.169Z,18.23
2023-08-28T18:22:40.001Z,18.18
2023-08-28T18:25:06.920Z,18.15
2023-08-28T18:27:33.355Z,18.12
2023-08-28T18:29:59.865Z,18.09
2023-08-28T18:32:26.301Z,18.12
2023-08-28T18:34:52.796Z,18.14
2023-08-28T18:37:19.770Z,18.23
2023-08-28T18:39:46.349Z,18.15
2023-08-28T18:42:12.820Z,18.22
2023-08-28T18:44:39.316Z,18.24
2023-08-28T18:47:06.162Z,18.17
2023-08-28T18:49:32.584Z,18.01
2023-08-28T18:51:59.076Z,17.96
2023-08-28T18:54:25.685Z,17.95
2023-08-28T18:56:52.142Z,17.94
2023-08-28T18:59:18.628Z,17.78
2023-08-28T19:01:45.115Z,17.81
2023-08-28T19:04:11.606Z,17.79
2023-08-28T19:06:38.101Z,17.75
2023-08-28T19:09:05.745Z,17.71
2023-08-28T19:11:32.406Z,17.70
2023-08-28T19:13:58.910Z,17.68
2023-08-28T19:16:25.485Z,17.75
2023-08-28T19:18:51.922Z,17.84
2023-08-28T19:21:18.486Z,17.83
2023-08-28T19:23:44.985Z,17.83
2023-08-28T19:26:11.512Z,17.87
2023-08-28T19:28:37.976Z,17.98
2023-08-28T19:31:05.896Z,18.02
2023-08-28T19:33:32.359Z,18.05
2023-08-28T19:35:58.819Z,17.99
2023-08-28T19:38:25.370Z,17.93
2023-08-28T19:40:51.837Z,18.10
2023-08-28T19:43:18.922Z,18.01
2023-08-28T19:45:45.552Z,17.89
2023-08-28T19:48:12.135Z,17.82
2023-08-28T19:50:38.706Z,17.76
2023-08-28T19:53:07.810Z,17.81
2023-08-28T19:55:35.604Z,17.83
2023-08-28T19:58:02.917Z,17.82
2023-08-28T20:00:30.150Z,17.84
2023-08-28T20:02:56.809Z,17.78
2023-08-28T20:05:23.327Z,17.81
2023-08-28T20:07:49.788Z,17.72
2023-08-28T20:10:16.363Z,17.75
2023-08-28T20:12:42.907Z,17.76
2023-08-28T20:15:09.567Z,17.80
2023-08-28T20:17:36.155Z,17.78
2023-08-28T20:20:05.873Z,17.78
2023-08-28T20:22:32.319Z,17.72
2023-08-28T20:24:58.818Z,17.61
2023-08-28T20:27:25.276Z,17.74
2023-08-28T20:29:51.805Z,17.74
2023-08-28T20:32:18.308Z,17.60
2023-08-28T20:34:44.850Z,17.53
2023-08-28T20:37:11.307Z,17.67
2023-08-28T20:39:38.151Z,17.57
2023-08-28T20:42:05.388Z,17.52
2023-08-28T20:44:33.491Z,17.68
2023-08-28T20:47:00.091Z,17.68
2023-08-28T20:49:26.572Z,17.75
2023-08-28T20:51:54.220Z,17.62
2023-08-28T20:54:21.082Z,17.38
2023-08-28T20:56:47.817Z,17.29
2023-08-28T20:59:16.190Z,17.34
2023-08-28T21:01:42.812Z,17.55
2023-08-28T21:04:09.255Z,17.52
2023-08-28T21:06:36.270Z,17.51
2023-08-28T21:09:02.817Z,17.49
2023-08-28T21:11:29.453Z,17.46
2023-08-28T21:13:55.928Z,17.47
2023-08-28T21:16:22.412Z,17.33
2023-08-28T21:18:48.896Z,17.43
2023-08-28T21:21:15.401Z,17.34
2023-08-28T21:23:41.883Z,17.27
2023-08-28T21:26:08.317Z,17.40
2023-08-28T21:28:35.901Z,17.22
2023-08-28T21:31:04.484Z,17.18
2023-08-28T21:33:32.886Z,17.16
2023-08-28T21:36:00.637Z,17.17
2023-08-28T21:38:27.461Z,16.97
2023-08-28T21:40:55.286Z,17.01
2023-08-28T21:43:22.331Z,17.03
2023-08-28T21:46:03.492Z,17.21
2023-08-28T21:48:32.110Z,17.23
2023-08-28T21:50:58.785Z,17.22
2023-08-28T21:53:25.239Z,17.16
2023-08-28T21:55:54.651Z,16.96
2023-08-28T21:58:22.239Z,16.85
2023-08-28T22:00:49.375Z,16.78
2023-08-28T22:03:15.972Z,16.99
2023-08-28T22:05:46.510Z,17.07
2023-08-28T22:08:13.988Z,17.08
2023-08-28T22:10:42.676Z,16.92
2023-08-28T22:13:09.922Z,16.89
2023-08-28T22:15:41.388Z,16.93
2023-08-28T22:18:12.600Z,17.07
2023-08-28T22:20:45.098Z,17.23
2023-08-28T22:23:14.883Z,17.24
2023-08-28T22:25:42.440Z,17.13
2023-08-28T22:28:08.955Z,17.10
2023-08-28T22:30:35.896Z,17.08
2023-08-28T22:33:02.645Z,17.24
2023-08-28T22:35:29.482Z,17.29
2023-08-28T22:37:55.938Z,17.28
2023-08-28T22:40:22.700Z,17.17
2023-08-28T22:42:49.719Z,16.99
2023-08-28T22:45:17.418Z,17.13
2023-08-28T22:47:44.172Z,17.22
2023-08-28T22:50:10.690Z,17.27
2023-08-28T22:52:37.177Z,17.33
2023-08-28T22:55:04.664Z,17.35
2023-08-28T22:57:31.207Z,17.29
2023-08-28T22:59:57.746Z,17.32
2023-08-28T23:02:24.259Z,17.30
2023-08-28T23:04:52.479Z,17.24
2023-08-28T23:07:19.662Z,16.97
2023-08-28T23:09:46.142Z,16.71
2023-08-28T23:12:12.819Z,16.85
2023-08-28T23:14:39.296Z,16.99
2023-08-28T23:17:05.848Z,17.09
2023-08-28T23:19:32.941Z,17.01
2023-08-28T23:21:59.430Z,16.91
2023-08-28T23:24:26.149Z,16.78
2023-08-28T23:26:52.704Z,16.73
2023-08-28T23:29:19.871Z,16.76
2023-08-28T23:31:49.153Z,16.72
2023-08-28T23:34:16.676Z,16.67
2023-08-28T23:36:45.164Z,16.66
2023-08-28T23:39:12.443Z,16.84
2023-08-28T23:41:38.976Z,16.88
2023-08-28T23:44:05.718Z,16.88
2023-08-28T23:46:32.161Z,16.88
2023-08-28T23:48:58.652Z,16.78
2023-08-28T23:51:25.130Z,16.73
2023-08-28T23:53:51.598Z,16.70
2023-08-28T23:56:18.027Z,16.69
2023-08-28T23:58:44.489Z,16.81
